Map

Track Data

SID SEASON NUMBER BASIN SUBBASIN NAME ISO_TIME NATURE LAT LON WMO_WIND WMO_PRES WMO_AGENCY TRACK_TYPE DIST2LAND LANDFALL IFLAG USA_AGENCY USA_ATCF_ID USA_LAT USA_LON USA_RECORD USA_STATUS USA_WIND USA_PRES USA_SSHS USA_R34_NE USA_R34_SE USA_R34_SW USA_R34_NW USA_R50_NE USA_R50_SE USA_R50_SW USA_R50_NW USA_R64_NE USA_R64_SE USA_R64_SW USA_R64_NW USA_POCI USA_ROCI USA_RMW USA_EYE TOKYO_LAT TOKYO_LON TOKYO_GRADE TOKYO_WIND TOKYO_PRES TOKYO_R50_DIR TOKYO_R50_LONG TOKYO_R50_SHORT TOKYO_R30_DIR TOKYO_R30_LONG TOKYO_R30_SHORT TOKYO_LAND CMA_LAT CMA_LON CMA_CAT CMA_WIND CMA_PRES HKO_LAT HKO_LON HKO_CAT HKO_WIND HKO_PRES NEWDELHI_LAT NEWDELHI_LON NEWDELHI_GRADE NEWDELHI_WIND NEWDELHI_PRES NEWDELHI_CI NEWDELHI_DP NEWDELHI_POCI REUNION_LAT REUNION_LON REUNION_TYPE REUNION_WIND REUNION_PRES REUNION_TNUM REUNION_CI REUNION_RMW REUNION_R34_NE REUNION_R34_SE REUNION_R34_SW REUNION_R34_NW REUNION_R50_NE REUNION_R50_SE REUNION_R50_SW REUNION_R50_NW REUNION_R64_NE REUNION_R64_SE REUNION_R64_SW REUNION_R64_NW BOM_LAT BOM_LON BOM_TYPE BOM_WIND BOM_PRES BOM_TNUM BOM_CI BOM_RMW BOM_R34_NE BOM_R34_SE BOM_R34_SW BOM_R34_NW BOM_R50_NE BOM_R50_SE BOM_R50_SW BOM_R50_NW BOM_R64_NE BOM_R64_SE BOM_R64_SW BOM_R64_NW BOM_ROCI BOM_POCI BOM_EYE BOM_POS_METHOD BOM_PRES_METHOD NADI_LAT NADI_LON NADI_CAT NADI_WIND NADI_PRES WELLINGTON_LAT WELLINGTON_LON WELLINGTON_WIND WELLINGTON_PRES DS824_LAT DS824_LON DS824_STAGE DS824_WIND DS824_PRES TD9636_LAT TD9636_LON TD9636_STAGE TD9636_WIND TD9636_PRES TD9635_LAT TD9635_LON TD9635_WIND TD9635_PRES TD9635_ROCI NEUMANN_LAT NEUMANN_LON NEUMANN_CLASS NEUMANN_WIND NEUMANN_PRES MLC_LAT MLC_LON MLC_CLASS MLC_WIND MLC_PRES USA_GUST BOM_GUST BOM_GUST_PER REUNION_GUST REUNION_GUST_PER USA_SEAHGT USA_SEARAD_NE USA_SEARAD_SE USA_SEARAD_SW USA_SEARAD_NW STORM_SPEED STORM_DIR
1994259N13244 1994 86 EP MM MIRIAM 1994-09-15 18:00:00 TS 13.5000 -115.600 30 1009 hurdat_epa main 1206 1206 O_____________ hurdat_epa EP151994 13.5000 -115.600 TD 30 1009 -1 10 289
1994259N13244 1994 86 EP MM MIRIAM 1994-09-15 21:00:00 TS 13.6627 -116.097 main 1213 1213 P_____________ EP151994 13.6627 -116.097 TD 30 1009 -1 10 287
1994259N13244 1994 86 EP MM MIRIAM 1994-09-16 00:00:00 TS 13.8000 -116.600 30 1009 hurdat_epa main 1233 1233 O_____________ hurdat_epa EP151994 13.8000 -116.600 TD 30 1009 -1 10 284
1994259N13244 1994 86 EP MM MIRIAM 1994-09-16 03:00:00 TS 13.8999 -117.108 main 1254 1254 P_____________ EP151994 13.8999 -117.108 TD 30 1009 -1 10 282
1994259N13244 1994 86 EP MM MIRIAM 1994-09-16 06:00:00 TS 14.0000 -117.600 30 1009 hurdat_epa main 1277 1277 O_____________ hurdat_epa EP151994 14.0000 -117.600 TD 30 1009 -1 10 285
1994259N13244 1994 86 EP MM MIRIAM 1994-09-16 09:00:00 TS 14.1424 -118.058 main 1302 1294 P_____________ EP151994 14.1424 -118.058 TD 30 1008 -1 9 289
1994259N13244 1994 86 EP MM MIRIAM 1994-09-16 12:00:00 TS 14.3000 -118.500 30 1008 hurdat_epa main 1313 1312 O_____________ hurdat_epa EP151994 14.3000 -118.500 TD 30 1008 -1 9 290
1994259N13244 1994 86 EP MM MIRIAM 1994-09-16 15:00:00 TS 14.4574 -118.950 main 1333 1333 P_____________ EP151994 14.4574 -118.950 TD 30 1007 -1 9 289
1994259N13244 1994 86 EP MM MIRIAM 1994-09-16 18:00:00 TS 14.6000 -119.400 30 1007 hurdat_epa main 1356 1356 O_____________ hurdat_epa EP151994 14.6000 -119.400 TD 30 1007 -1 9 287
1994259N13244 1994 86 EP MM MIRIAM 1994-09-16 21:00:00 TS 14.7224 -119.850 main 1377 1380 P_____________ EP151994 14.7224 -119.850 TD 30 1006 -1 9 283
1994259N13244 1994 86 EP MM MIRIAM 1994-09-17 00:00:00 TS 14.8000 -120.300 30 1006 hurdat_epa main 1399 1399 O_____________ hurdat_epa EP151994 14.8000 -120.300 TD 30 1006 -1 9 275
1994259N13244 1994 86 EP MM MIRIAM 1994-09-17 03:00:00 TS 14.7999 -120.743 main 1425 1425 P_____________ EP151994 14.7999 -120.743 TD 32 1005 -1 9 270
1994259N13244 1994 86 EP MM MIRIAM 1994-09-17 06:00:00 TS 14.8000 -121.200 35 1005 hurdat_epa main 1459 1459 O_____________ hurdat_epa EP151994 14.8000 -121.200 TS 35 1005 0 9 275
1994259N13244 1994 86 EP MM MIRIAM 1994-09-17 09:00:00 TS 14.8773 -121.670 main 1485 1485 P_____________ EP151994 14.8773 -121.670 TS 35 1004 0 10 282
1994259N13244 1994 86 EP MM MIRIAM 1994-09-17 12:00:00 TS 15.0000 -122.200 35 1004 hurdat_epa main 1512 1512 O_____________ hurdat_epa EP151994 15.0000 -122.200 TS 35 1004 0 11 283
1994259N13244 1994 86 EP MM MIRIAM 1994-09-17 15:00:00 TS 15.1275 -122.828 main 1549 1548 P_____________ EP151994 15.1275 -122.828 TS 35 1003 0 13 283
1994259N13244 1994 86 EP MM MIRIAM 1994-09-17 18:00:00 TS 15.3000 -123.500 35 1003 hurdat_epa main 1586 1586 O_____________ hurdat_epa EP151994 15.3000 -123.500 TS 35 1003 0 13 288
1994259N13244 1994 86 EP MM MIRIAM 1994-09-17 21:00:00 TS 15.5348 -124.150 main 1626 1618 P_____________ EP151994 15.5348 -124.150 TS 35 1002 0 14 292
1994259N13244 1994 86 EP MM MIRIAM 1994-09-18 00:00:00 TS 15.8000 -124.800 35 1002 hurdat_epa main 1653 1653 O_____________ hurdat_epa EP151994 15.8000 -124.800 TS 35 1002 0 14 292
1994259N13244 1994 86 EP MM MIRIAM 1994-09-18 03:00:00 TS 16.0575 -125.473 main 1687 1687 P_____________ EP151994 16.0575 -125.473 TS 37 1002 0 13 292
1994259N13244 1994 86 EP MM MIRIAM 1994-09-18 06:00:00 TS 16.3000 -126.100 40 1002 hurdat_epa main 1710 1708 O_____________ hurdat_epa EP151994 16.3000 -126.100 TS 40 1002 0 12 293
1994259N13244 1994 86 EP MM MIRIAM 1994-09-18 09:00:00 TS 16.5298 -126.630 main 1728 1727 P_____________ EP151994 16.5298 -126.630 TS 40 1002 0 10 293
1994259N13244 1994 86 EP MM MIRIAM 1994-09-18 12:00:00 TS 16.7000 -127.100 40 1002 hurdat_epa main 1747 1747 O_____________ hurdat_epa EP151994 16.7000 -127.100 TS 40 1002 0 9 286
1994259N13244 1994 86 EP MM MIRIAM 1994-09-18 15:00:00 TS 16.7873 -127.550 main 1776 1776 P_____________ EP151994 16.7873 -127.550 TS 37 1002 0 9 277
1994259N13244 1994 86 EP MM MIRIAM 1994-09-18 18:00:00 TS 16.8000 -128.000 35 1002 hurdat_epa main 1806 1806 O_____________ hurdat_epa EP151994 16.8000 -128.000 TS 35 1002 0 9 269
1994259N13244 1994 86 EP MM MIRIAM 1994-09-18 21:00:00 TS 16.7724 -128.485 main 1844 1844 P_____________ EP151994 16.7724 -128.485 TS 35 1002 0 10 264
1994259N13244 1994 86 EP MM MIRIAM 1994-09-19 00:00:00 TS 16.7000 -129.000 35 1003 hurdat_epa main 1891 1891 O_____________ hurdat_epa EP151994 16.7000 -129.000 TS 35 1003 0 10 261
1994259N13244 1994 86 EP MM MIRIAM 1994-09-19 03:00:00 TS 16.6149 -129.535 main 1938 1938 P_____________ EP151994 16.6149 -129.535 TS 35 1003 0 11 259
1994259N13244 1994 86 EP MM MIRIAM 1994-09-19 06:00:00 TS 16.5000 -130.100 35 1004 hurdat_epa main 1993 1993 O_____________ hurdat_epa EP151994 16.5000 -130.100 TS 35 1004 0 12 257
1994259N13244 1994 86 EP MM MIRIAM 1994-09-19 09:00:00 TS 16.3500 -130.708 main 2048 2048 P_____________ EP151994 16.3500 -130.708 TS 35 1004 0 12 255
1994259N13244 1994 86 EP MM MIRIAM 1994-09-19 12:00:00 TS 16.2000 -131.300 35 1005 hurdat_epa main 2111 2111 O_____________ hurdat_epa EP151994 16.2000 -131.300 TS 35 1005 0 11 256
1994259N13244 1994 86 EP MM MIRIAM 1994-09-19 15:00:00 TS 16.0922 -131.807 main 2160 2160 P_____________ EP151994 16.0922 -131.807 TS 32 1005 -1 10 258
1994259N13244 1994 86 EP MM MIRIAM 1994-09-19 18:00:00 TS 16.0000 -132.300 30 1006 hurdat_epa main 2208 2208 O_____________ hurdat_epa EP151994 16.0000 -132.300 TD 30 1006 -1 10 259
1994259N13244 1994 86 EP MM MIRIAM 1994-09-19 21:00:00 TS 15.9074 -132.835 main 2256 2256 P_____________ EP151994 15.9074 -132.835 TD 30 1006 -1 11 259
1994259N13244 1994 86 EP MM MIRIAM 1994-09-20 00:00:00 TS 15.8000 -133.400 30 1007 hurdat_epa main 2303 2244 O_____________ hurdat_epa EP151994 15.8000 -133.400 TD 30 1007 -1 11 257
1994259N13244 1994 86 EP MM MIRIAM 1994-09-20 03:00:00 TS 15.6499 -133.993 main 2246 2187 P_____________ EP151994 15.6499 -133.993 TD 30 1007 -1 12 255
1994259N13244 1994 86 EP MM MIRIAM 1994-09-20 06:00:00 TS 15.5000 -134.600 30 1008 hurdat_epa main 2187 2128 O_____________ hurdat_epa EP151994 15.5000 -134.600 TD 30 1008 -1 12 257
1994259N13244 1994 86 EP MM MIRIAM 1994-09-20 09:00:00 TS 15.3848 -135.200 main 2128 2069 P_____________ EP151994 15.3848 -135.200 TD 27 1008 -1 12 260
1994259N13244 1994 86 EP MM MIRIAM 1994-09-20 12:00:00 TS 15.3000 -135.800 25 1009 hurdat_epa main 2069 2007 O_____________ hurdat_epa EP151994 15.3000 -135.800 TD 25 1009 -1 12 263
1994259N13244 1994 86 EP MM MIRIAM 1994-09-20 15:00:00 TS 15.2500 -136.415 main 2010 1948 P_____________ EP151994 15.2500 -136.415 TD 25 1009 -1 12 265
1994259N13244 1994 86 EP MM MIRIAM 1994-09-20 18:00:00 TS 15.2000 -137.000 25 1010 hurdat_epa main 1948 1900 O_____________ hurdat_epa EP151994 15.2000 -137.000 TD 25 1010 -1 11 262
1994259N13244 1994 86 EP MM MIRIAM 1994-09-20 21:00:00 TS 15.0999 -137.538 main 1900 1853 P_____________ EP151994 15.0999 -137.538 TD 25 1010 -1 10 258
1994259N13244 1994 86 EP MM MIRIAM 1994-09-21 00:00:00 TS 15.0000 -138.000 25 1010 hurdat_epa main 1853 1815 O_____________ hurdat_epa EP151994 15.0000 -138.000 TD 25 1010 -1 8 259
1994259N13244 1994 86 EP MM MIRIAM 1994-09-21 03:00:00 TS 14.9349 -138.395 main 1815 1785 P_____________ EP151994 14.9349 -138.395 TD 25 1010 -1 7 262
1994259N13244 1994 86 EP MM MIRIAM 1994-09-21 06:00:00 TS 14.9000 -138.700 25 1011 hurdat_epa main 1785 1764 O_____________ hurdat_epa EP151994 14.9000 -138.700 TD 25 1011 -1 5 265
1994259N13244 1994 86 EP MM MIRIAM 1994-09-21 09:00:00 TS 14.8925 -138.923 main 1764 1744 P_____________ EP151994 14.8925 -138.923 TD 25 1011 -1 4 270
1994259N13244 1994 86 EP MM MIRIAM 1994-09-21 12:00:00 TS 14.9000 -139.100 25 1011 hurdat_epa main 1744 O_____________ hurdat_epa EP151994 14.9000 -139.100 TD 25 1011 -1 3 272

About IBTrACS Database

This database is a web-friendly format of International Best Track Archive for Climate Stewardship (IBTrACS), a global best track data archive curated by NOAA dating back to 1842.

Updated: 2021-11-26